Polk Army Air Field Fort Polk US
ICAO: KPOE
IATA: POE
Category: Medium
Scheduled Services: No

Elevation: 330 ft
TransAlt. 18000 ft.

Airport Communications:
APP/DEP:123.7
ATIS:134.85
FLT FOLLOWING:123.7
GND:121.8
RANGE CON:40.95
MEDEVAC OPS:42.5
POE OPS:36.05
PMSV METRO:135
TWR:41.5

KPOE Zoom In..

Runways:

(A) RW 16 length 4109 ft width 125 ft
---- / hdg 158

(B) RW 34 length 4109 ft width 125 ft
---- / hdg 338

Location; KPOE
Day. 24 / Time. 02.55 Zulu
* Altimeter: 30.09
* Temperature: 24° c. 75.2°f.
* Wind from: 070° Speed 01 kn.
Dewpoint: 18° c.
Visibility: 10 Statute Miles.
Clouds: Few 17000 ft.

KPOE 240255Z 07001KT 10SM FEW170 24/18 A3009 RMK AO2A SLP177 WND DATA ESTMD T02390182 51014


Wind From 070°
Speed 01 kn.

 
 
jpsmedia.com for Web Design SOUNDCLOUD worldairports.se 2018   terms of use